createdAt,value
2023-05-05T00:01:38.103Z,10.11
2023-05-05T00:04:05.144Z,10.12
2023-05-05T00:06:32.189Z,10.15
2023-05-05T00:08:59.250Z,10.15
2023-05-05T00:11:26.286Z,10.14
2023-05-05T00:13:53.329Z,10.11
2023-05-05T00:16:20.522Z,10.09
2023-05-05T00:18:48.150Z,10.06
2023-05-05T00:21:15.944Z,10.03
2023-05-05T00:23:42.944Z,9.99
2023-05-05T00:26:09.981Z,9.94
2023-05-05T00:28:38.085Z,9.90
2023-05-05T00:31:05.285Z,9.86
2023-05-05T00:33:32.444Z,9.83
2023-05-05T00:35:59.417Z,9.82
2023-05-05T00:40:34.078Z,9.79
2023-05-05T00:43:01.213Z,9.74
2023-05-05T00:45:28.380Z,9.70
2023-05-05T00:47:57.695Z,9.65
2023-05-05T00:50:29.709Z,9.62
2023-05-05T00:52:59.068Z,9.58
2023-05-05T00:55:26.423Z,9.55
2023-05-05T00:57:53.579Z,9.54
2023-05-05T01:00:20.698Z,9.50
2023-05-05T01:02:47.738Z,9.45
2023-05-05T01:05:15.316Z,9.43
2023-05-05T01:07:48.773Z,9.40
2023-05-05T01:10:34.351Z,9.33
2023-05-05T01:13:13.467Z,9.27
2023-05-05T01:15:44.217Z,9.21
2023-05-05T01:18:17.055Z,9.14
2023-05-05T01:21:14.819Z,9.08
2023-05-05T01:24:15.013Z,9.05
2023-05-05T01:26:57.574Z,9.01
2023-05-05T01:29:38.804Z,8.98
2023-05-05T01:32:11.032Z,8.96
2023-05-05T01:34:42.298Z,8.94
2023-05-05T01:37:16.503Z,8.92
2023-05-05T01:39:43.573Z,8.91
2023-05-05T01:42:14.134Z,8.88
2023-05-05T01:44:44.806Z,8.87
2023-05-05T01:47:16.368Z,8.87
2023-05-05T01:49:44.386Z,8.88
2023-05-05T01:52:11.403Z,8.88
2023-05-05T01:54:38.635Z,8.87
2023-05-05T01:57:05.831Z,8.84
2023-05-05T01:59:33.725Z,8.83
2023-05-05T02:02:01.596Z,8.81
2023-05-05T02:04:29.116Z,8.79
2023-05-05T02:06:59.836Z,8.77
2023-05-05T02:09:27.072Z,8.76
2023-05-05T02:11:54.119Z,8.74
2023-05-05T02:14:21.211Z,8.73
2023-05-05T02:16:48.246Z,8.73
2023-05-05T02:19:15.247Z,8.73
2023-05-05T02:21:42.379Z,8.75
2023-05-05T02:24:09.398Z,8.76
2023-05-05T02:26:39.104Z,8.78
2023-05-05T02:29:08.155Z,8.79
2023-05-05T02:31:39.174Z,8.78
2023-05-05T02:34:06.790Z,8.76
2023-05-05T02:36:38.154Z,8.76
2023-05-05T02:39:14.219Z,8.75
2023-05-05T02:41:41.826Z,8.72
2023-05-05T02:44:14.328Z,8.71
2023-05-05T02:46:42.628Z,8.72
2023-05-05T02:49:09.762Z,8.76
2023-05-05T02:51:37.749Z,8.82
2023-05-05T02:54:07.418Z,8.84
2023-05-05T02:56:48.957Z,8.88
2023-05-05T02:59:38.460Z,8.93
2023-05-05T03:02:17.762Z,8.97
2023-05-05T03:04:55.456Z,9.02
2023-05-05T03:07:26.002Z,9.08
2023-05-05T03:09:56.506Z,9.13
2023-05-05T03:12:28.153Z,9.23
2023-05-05T03:15:01.538Z,9.37
2023-05-05T03:17:30.080Z,9.50
2023-05-05T03:19:57.659Z,9.61
2023-05-05T03:22:24.832Z,9.67
2023-05-05T03:24:51.916Z,9.71
2023-05-05T03:27:22.234Z,9.77
2023-05-05T03:29:49.303Z,9.84
2023-05-05T03:32:16.556Z,9.96
2023-05-05T03:34:43.870Z,10.08
2023-05-05T03:37:11.165Z,10.14
2023-05-05T03:39:38.852Z,10.23
2023-05-05T03:42:06.697Z,10.38
2023-05-05T03:44:34.908Z,10.52
2023-05-05T03:47:02.014Z,10.66
2023-05-05T03:49:29.605Z,10.76
2023-05-05T03:51:56.669Z,10.90
2023-05-05T03:54:24.026Z,11.08
2023-05-05T03:56:51.702Z,11.29
2023-05-05T03:59:18.709Z,11.62
2023-05-05T04:01:46.900Z,12.08
2023-05-05T04:04:14.070Z,12.52
2023-05-05T04:06:41.158Z,12.78
2023-05-05T04:09:08.826Z,12.94
2023-05-05T04:11:36.041Z,13.04
2023-05-05T04:14:03.640Z,13.18
2023-05-05T04:16:31.317Z,13.54
2023-05-05T04:18:58.817Z,14.09
2023-05-05T04:21:25.960Z,14.65
2023-05-05T04:23:53.115Z,15.42
2023-05-05T04:26:21.213Z,16.29
2023-05-05T04:28:49.635Z,17.07
2023-05-05T04:31:17.029Z,17.94
2023-05-05T04:33:44.602Z,18.64
2023-05-05T04:36:11.945Z,19.01
2023-05-05T04:38:39.134Z,19.25
2023-05-05T04:41:06.738Z,19.18
2023-05-05T04:43:34.465Z,18.92
2023-05-05T04:46:01.944Z,18.65
2023-05-05T04:48:31.053Z,18.43
2023-05-05T04:50:58.049Z,18.32
2023-05-05T04:53:25.201Z,18.24
2023-05-05T04:55:52.333Z,18.14
2023-05-05T04:58:19.330Z,18.09
2023-05-05T05:00:46.706Z,18.09
2023-05-05T05:03:13.805Z,18.04
2023-05-05T05:05:40.852Z,17.96
2023-05-05T05:08:08.429Z,17.88
2023-05-05T05:10:36.060Z,17.82
2023-05-05T05:13:03.192Z,17.76
2023-05-05T05:15:30.357Z,17.68
2023-05-05T05:17:58.221Z,17.63
2023-05-05T05:20:25.381Z,17.67
2023-05-05T05:22:52.408Z,17.78
2023-05-05T05:25:20.021Z,17.82
2023-05-05T05:27:55.263Z,17.84
2023-05-05T05:30:33.921Z,17.85
2023-05-05T05:33:02.476Z,17.96
2023-05-05T05:35:30.010Z,18.19
2023-05-05T05:37:57.153Z,18.56
2023-05-05T05:40:24.904Z,19.00
2023-05-05T05:42:51.975Z,19.35
2023-05-05T05:45:19.078Z,19.68
2023-05-05T05:47:46.223Z,19.89
2023-05-05T05:50:14.128Z,19.84
2023-05-05T05:52:41.751Z,19.75
2023-05-05T05:55:09.744Z,19.69
2023-05-05T05:57:37.287Z,19.65
2023-05-05T06:00:06.723Z,19.57
2023-05-05T06:02:39.093Z,19.50
2023-05-05T06:05:08.258Z,19.42
2023-05-05T06:07:35.617Z,19.35
2023-05-05T06:10:14.676Z,19.30
2023-05-05T06:12:50.152Z,19.34
2023-05-05T06:15:17.324Z,19.59
2023-05-05T06:17:44.449Z,19.83
2023-05-05T06:20:13.160Z,19.92
2023-05-05T06:22:40.290Z,19.88
2023-05-05T06:25:07.761Z,19.70
2023-05-05T06:27:35.295Z,19.45
2023-05-05T06:30:02.304Z,19.22
2023-05-05T06:32:29.398Z,19.06
2023-05-05T06:34:56.476Z,19.01
2023-05-05T06:37:23.489Z,19.12
2023-05-05T06:39:51.030Z,19.34
2023-05-05T06:42:18.069Z,19.51
2023-05-05T06:44:45.833Z,19.66
2023-05-05T06:47:12.975Z,19.90
2023-05-05T06:49:40.004Z,20.13
2023-05-05T06:52:08.480Z,20.26
2023-05-05T06:54:35.493Z,20.35
2023-05-05T06:57:02.565Z,20.40
2023-05-05T06:59:29.721Z,20.41
2023-05-05T07:01:58.411Z,20.30
2023-05-05T07:04:25.442Z,20.19
2023-05-05T07:06:52.500Z,20.12
2023-05-05T07:09:20.564Z,20.17
2023-05-05T07:11:47.593Z,20.34
2023-05-05T07:14:14.665Z,20.50
2023-05-05T07:16:41.816Z,20.67
2023-05-05T07:19:08.970Z,20.75
2023-05-05T07:21:36.764Z,20.79
2023-05-05T07:24:04.330Z,20.91
2023-05-05T07:26:31.697Z,21.03
2023-05-05T07:28:59.183Z,21.05
2023-05-05T07:31:26.777Z,21.04
2023-05-05T07:33:53.995Z,20.95
2023-05-05T07:36:21.118Z,20.69
2023-05-05T07:38:48.171Z,20.70
2023-05-05T07:41:15.191Z,20.91
2023-05-05T07:43:44.186Z,21.06
2023-05-05T07:46:12.341Z,21.30
2023-05-05T07:48:41.553Z,21.60
2023-05-05T07:51:09.712Z,21.68
2023-05-05T07:53:37.256Z,21.69
2023-05-05T07:56:04.432Z,21.69
2023-05-05T07:58:31.481Z,21.77
2023-05-05T08:00:58.588Z,21.91
2023-05-05T08:03:25.722Z,21.98
2023-05-05T08:05:56.627Z,22.13
2023-05-05T08:08:27.193Z,22.46
2023-05-05T08:10:54.784Z,22.83
2023-05-05T08:13:21.888Z,23.16
2023-05-05T08:15:49.010Z,23.20
2023-05-05T08:18:16.119Z,22.95
2023-05-05T08:20:43.281Z,22.65
2023-05-05T08:23:10.509Z,22.53
2023-05-05T08:25:37.500Z,22.60
2023-05-05T08:28:04.590Z,22.64
2023-05-05T08:30:31.828Z,22.68
2023-05-05T08:32:59.604Z,22.71
2023-05-05T08:35:26.666Z,22.74
2023-05-05T08:37:53.920Z,22.81
2023-05-05T08:40:22.389Z,22.78
2023-05-05T08:42:49.403Z,22.72
2023-05-05T08:45:17.073Z,22.65
2023-05-05T08:47:44.896Z,22.61
2023-05-05T08:50:12.096Z,22.59
2023-05-05T08:52:41.112Z,22.69
2023-05-05T08:55:15.877Z,22.79
2023-05-05T08:58:03.362Z,22.95
2023-05-05T09:00:30.728Z,23.28
2023-05-05T09:02:59.194Z,23.52
2023-05-05T09:05:26.582Z,23.52
2023-05-05T09:07:53.650Z,23.62
2023-05-05T09:10:20.800Z,23.79
2023-05-05T09:12:49.784Z,24.01
2023-05-05T09:15:16.911Z,24.31
2023-05-05T09:17:44.614Z,24.25
2023-05-05T09:20:12.857Z,24.00
2023-05-05T09:22:41.882Z,23.84
2023-05-05T09:25:11.791Z,23.76
2023-05-05T09:27:43.573Z,23.75
2023-05-05T09:30:12.354Z,23.74
2023-05-05T09:32:52.480Z,23.71
2023-05-05T09:35:20.085Z,23.66
2023-05-05T09:37:47.184Z,23.73
2023-05-05T09:40:15.933Z,23.88
2023-05-05T09:42:43.010Z,23.94
2023-05-05T09:45:30.423Z,23.84
2023-05-05T09:48:00.226Z,23.74
2023-05-05T09:50:30.909Z,23.60
2023-05-05T09:53:02.400Z,23.56
2023-05-05T09:55:31.277Z,23.46
2023-05-05T09:58:20.151Z,23.39
2023-05-05T10:00:47.959Z,23.43
2023-05-05T10:03:15.114Z,23.57
2023-05-05T10:05:47.986Z,23.77
2023-05-05T10:08:15.093Z,24.01
2023-05-05T10:11:14.710Z,24.17
2023-05-05T10:13:44.599Z,24.22
2023-05-05T10:16:12.275Z,24.21
2023-05-05T10:18:39.294Z,24.16
2023-05-05T10:21:06.321Z,24.13
2023-05-05T10:23:39.693Z,24.08
2023-05-05T10:26:07.849Z,24.19
2023-05-05T10:28:44.460Z,24.69
2023-05-05T10:31:25.651Z,25.11
2023-05-05T10:34:04.271Z,25.15
2023-05-05T10:36:32.055Z,25.06
2023-05-05T10:38:59.389Z,24.91
2023-05-05T10:41:29.167Z,24.84
2023-05-05T10:43:57.707Z,24.75
2023-05-05T10:46:28.690Z,24.55
2023-05-05T10:49:49.659Z,24.40
2023-05-05T10:52:47.789Z,24.43
2023-05-05T10:55:38.149Z,24.69
2023-05-05T10:58:05.258Z,24.86
2023-05-05T11:00:38.409Z,25.06
2023-05-05T11:03:18.244Z,25.37
2023-05-05T11:06:03.925Z,25.88
2023-05-05T11:08:34.870Z,26.10
2023-05-05T11:11:02.448Z,26.48
2023-05-05T11:13:29.536Z,26.62
2023-05-05T11:15:57.377Z,26.32
2023-05-05T11:18:31.417Z,26.25
2023-05-05T11:20:58.423Z,26.11
2023-05-05T11:23:28.790Z,25.78
2023-05-05T11:25:57.744Z,25.57
2023-05-05T11:28:31.315Z,25.53
2023-05-05T11:30:58.822Z,25.76
2023-05-05T11:33:33.016Z,26.06
2023-05-05T11:36:07.710Z,26.33
2023-05-05T11:38:37.891Z,26.38
2023-05-05T11:41:23.785Z,26.19
2023-05-05T11:43:50.927Z,26.09
2023-05-05T11:46:18.151Z,26.27
2023-05-05T11:48:54.552Z,26.24
2023-05-05T11:51:22.595Z,26.06
2023-05-05T11:53:49.905Z,25.89
2023-05-05T11:56:22.060Z,25.70
2023-05-05T11:58:49.599Z,25.53
2023-05-05T12:01:17.031Z,25.51
2023-05-05T12:03:45.944Z,25.74
2023-05-05T12:06:13.313Z,26.13
2023-05-05T12:08:41.031Z,26.59
2023-05-05T12:11:09.199Z,26.98
2023-05-05T12:13:36.243Z,27.01
2023-05-05T12:16:13.472Z,26.72
2023-05-05T12:18:40.744Z,26.58
2023-05-05T12:21:17.850Z,26.78
2023-05-05T12:23:44.991Z,26.92
2023-05-05T12:26:29.423Z,27.15
2023-05-05T12:28:57.454Z,27.49
2023-05-05T12:31:37.972Z,27.68
2023-05-05T12:34:06.485Z,27.73
2023-05-05T12:36:34.180Z,27.51
2023-05-05T12:39:01.553Z,27.16
2023-05-05T12:41:29.053Z,26.83
2023-05-05T12:43:59.578Z,26.81
2023-05-05T12:46:26.866Z,26.82
2023-05-05T12:49:06.961Z,26.69
2023-05-05T12:51:35.204Z,26.46
2023-05-05T12:54:10.139Z,26.15
2023-05-05T12:58:18.791Z,26.10
2023-05-05T13:00:46.080Z,26.16
2023-05-05T13:03:20.229Z,26.20
2023-05-05T13:05:47.615Z,26.18
2023-05-05T13:08:14.695Z,26.42
2023-05-05T13:10:57.857Z,26.90
2023-05-05T13:13:24.962Z,27.40
2023-05-05T13:15:52.085Z,27.72
2023-05-05T13:18:19.218Z,27.95
2023-05-05T13:20:46.280Z,27.91
2023-05-05T13:23:13.261Z,28.08
2023-05-05T13:25:40.322Z,28.08
2023-05-05T13:28:07.321Z,27.79
2023-05-05T13:30:34.277Z,27.53
2023-05-05T13:33:03.632Z,27.27
2023-05-05T13:35:30.966Z,27.00
2023-05-05T13:37:58.039Z,26.76
2023-05-05T13:40:25.973Z,26.62
2023-05-05T13:42:53.156Z,26.70
2023-05-05T13:45:20.207Z,26.68
2023-05-05T13:47:47.221Z,26.84
2023-05-05T13:50:14.341Z,26.77
2023-05-05T13:52:41.989Z,26.57
2023-05-05T13:55:09.906Z,26.55
2023-05-05T13:57:37.051Z,26.53
2023-05-05T14:00:04.619Z,26.49
2023-05-05T14:02:34.670Z,26.31
2023-05-05T14:05:01.688Z,26.09
2023-05-05T14:07:28.708Z,25.98
2023-05-05T14:09:55.740Z,25.86
2023-05-05T14:12:23.921Z,25.88
2023-05-05T14:14:50.957Z,26.21
2023-05-05T14:17:17.994Z,26.35
2023-05-05T14:19:45.202Z,26.10
2023-05-05T14:22:12.253Z,25.73
2023-05-05T14:24:39.242Z,25.41
2023-05-05T14:27:06.316Z,25.15
2023-05-05T14:29:33.295Z,24.92
2023-05-05T14:32:00.298Z,24.79
2023-05-05T14:34:27.420Z,24.86
2023-05-05T14:36:54.449Z,25.13
2023-05-05T14:39:21.744Z,25.32
2023-05-05T14:41:48.783Z,25.46
2023-05-05T14:44:15.959Z,25.66
2023-05-05T14:46:44.652Z,25.85
2023-05-05T14:49:12.928Z,26.08
2023-05-05T14:51:39.916Z,26.17
2023-05-05T14:54:14.214Z,25.96
2023-05-05T14:56:44.530Z,25.99
2023-05-05T14:59:11.532Z,26.07
2023-05-05T15:01:38.605Z,26.18
2023-05-05T15:04:05.720Z,26.36
2023-05-05T15:06:32.792Z,26.53
2023-05-05T15:08:59.874Z,26.70
2023-05-05T15:11:26.906Z,26.65
2023-05-05T15:13:53.975Z,26.61
2023-05-05T15:16:21.404Z,26.61
2023-05-05T15:18:48.463Z,26.42
2023-05-05T15:21:15.591Z,26.30
2023-05-05T15:23:42.597Z,26.29
2023-05-05T15:26:09.672Z,26.27
2023-05-05T15:28:36.778Z,26.23
2023-05-05T15:31:03.762Z,26.10
2023-05-05T15:33:31.267Z,25.95
2023-05-05T15:35:58.378Z,25.83
2023-05-05T15:38:25.834Z,25.78
2023-05-05T15:40:52.832Z,25.64
2023-05-05T15:43:20.107Z,25.41
2023-05-05T15:45:47.145Z,25.13
2023-05-05T15:48:14.343Z,24.92
2023-05-05T15:50:41.380Z,24.76
2023-05-05T15:53:08.444Z,24.59
2023-05-05T15:55:36.091Z,24.45
2023-05-05T15:58:03.129Z,24.34
2023-05-05T16:00:31.621Z,24.20
2023-05-05T16:02:58.699Z,24.04
2023-05-05T16:05:25.770Z,23.87
2023-05-05T16:07:53.815Z,23.69
2023-05-05T16:10:21.029Z,23.48
2023-05-05T16:12:48.077Z,23.23
2023-05-05T16:15:15.074Z,22.95
2023-05-05T16:17:42.178Z,22.68
2023-05-05T16:20:10.272Z,22.46
2023-05-05T16:22:37.322Z,22.28
2023-05-05T16:25:04.696Z,22.07
2023-05-05T16:27:31.665Z,21.82
2023-05-05T16:29:59.811Z,21.53
2023-05-05T16:32:27.104Z,21.22
2023-05-05T16:34:54.089Z,20.94
2023-05-05T16:37:21.103Z,20.67
2023-05-05T16:39:48.347Z,20.44
2023-05-05T16:42:15.362Z,20.28
2023-05-05T16:44:42.331Z,20.19
2023-05-05T16:47:09.521Z,20.09
2023-05-05T16:49:36.576Z,19.97
2023-05-05T16:52:03.810Z,19.86
2023-05-05T16:54:30.998Z,19.78
2023-05-05T16:56:58.409Z,19.69
2023-05-05T16:59:25.404Z,19.55
2023-05-05T17:01:52.392Z,19.36
2023-05-05T17:04:19.448Z,19.14
2023-05-05T17:06:46.537Z,18.91
2023-05-05T17:09:13.569Z,18.69
2023-05-05T17:11:40.633Z,18.48
2023-05-05T17:14:07.701Z,18.29
2023-05-05T17:16:34.818Z,18.13
2023-05-05T17:19:01.803Z,18.06
2023-05-05T17:21:29.437Z,18.03
2023-05-05T17:23:56.558Z,17.99
2023-05-05T17:26:24.564Z,17.94
2023-05-05T17:28:52.129Z,17.79
2023-05-05T17:31:19.292Z,17.70
2023-05-05T17:33:46.380Z,17.65
2023-05-05T17:36:13.446Z,17.58
2023-05-05T17:38:40.426Z,17.50
2023-05-05T17:41:07.741Z,17.43
2023-05-05T17:43:36.298Z,17.37
2023-05-05T17:46:03.411Z,17.30
2023-05-05T17:48:30.759Z,17.21
2023-05-05T17:50:57.839Z,17.12
2023-05-05T17:53:25.200Z,17.06
2023-05-05T17:55:52.179Z,16.99
2023-05-05T17:58:19.343Z,16.93
2023-05-05T18:00:46.428Z,16.88
2023-05-05T18:03:13.705Z,16.84
2023-05-05T18:05:40.965Z,16.79
2023-05-05T18:08:08.164Z,16.75
2023-05-05T18:10:35.237Z,16.71
2023-05-05T18:13:02.755Z,16.67
2023-05-05T18:15:30.314Z,16.63
2023-05-05T18:17:57.490Z,16.58
2023-05-05T18:20:24.534Z,16.54
2023-05-05T18:22:52.489Z,16.50
2023-05-05T18:25:19.652Z,16.47
2023-05-05T18:27:46.766Z,16.43
2023-05-05T18:30:14.047Z,16.40
2023-05-05T18:32:41.196Z,16.36
2023-05-05T18:35:08.935Z,16.31
2023-05-05T18:37:36.399Z,16.26
2023-05-05T18:40:03.643Z,16.19
2023-05-05T18:42:32.381Z,16.14
2023-05-05T18:44:59.386Z,16.09
2023-05-05T18:47:27.215Z,16.05
2023-05-05T18:49:54.635Z,15.99
2023-05-05T18:52:21.999Z,15.94
2023-05-05T18:54:49.076Z,15.87
2023-05-05T18:57:16.475Z,15.80
2023-05-05T18:59:43.686Z,15.73
2023-05-05T19:02:10.813Z,15.67
2023-05-05T19:04:38.363Z,15.59
2023-05-05T19:07:05.721Z,15.54
2023-05-05T19:09:32.915Z,15.47
2023-05-05T19:11:59.976Z,15.39
2023-05-05T19:14:27.018Z,15.34
2023-05-05T19:16:56.131Z,15.29
2023-05-05T19:19:23.677Z,15.24
2023-05-05T19:21:50.773Z,15.18
2023-05-05T19:24:17.821Z,15.13
2023-05-05T19:26:44.827Z,15.08
2023-05-05T19:29:12.730Z,15.04
2023-05-05T19:31:39.810Z,14.99
2023-05-05T19:34:06.929Z,14.95
2023-05-05T19:36:34.370Z,14.92
2023-05-05T19:39:02.028Z,14.89
2023-05-05T19:41:30.767Z,14.84
2023-05-05T19:43:57.979Z,14.80
2023-05-05T19:46:27.890Z,14.77
2023-05-05T19:48:54.946Z,14.74
2023-05-05T19:51:22.044Z,14.71
2023-05-05T19:53:49.047Z,14.69
2023-05-05T19:56:17.435Z,14.67
2023-05-05T19:58:59.125Z,14.67
2023-05-05T20:01:27.175Z,14.63
2023-05-05T20:03:55.270Z,14.60
2023-05-05T20:06:22.849Z,14.59
2023-05-05T20:08:50.031Z,14.57
2023-05-05T20:11:17.174Z,14.53
2023-05-05T20:13:44.348Z,14.51
2023-05-05T20:16:12.060Z,14.49
2023-05-05T20:18:40.208Z,14.46
2023-05-05T20:21:07.330Z,14.42
2023-05-05T20:23:34.470Z,14.37
2023-05-05T20:26:02.086Z,14.31
2023-05-05T20:28:31.750Z,14.26
2023-05-05T20:31:00.854Z,14.18
2023-05-05T20:33:31.640Z,14.12
2023-05-05T20:35:59.200Z,14.07
2023-05-05T20:38:26.943Z,14.02
2023-05-05T20:40:54.769Z,13.97
2023-05-05T20:43:21.819Z,13.89
2023-05-05T20:45:49.249Z,13.82
2023-05-05T20:48:20.046Z,13.77
2023-05-05T20:50:48.221Z,13.73
2023-05-05T20:53:16.326Z,13.67
2023-05-05T20:55:43.586Z,13.62
2023-05-05T20:58:10.944Z,13.55
2023-05-05T21:00:38.769Z,13.49
2023-05-05T21:03:06.468Z,13.44
2023-05-05T21:05:33.632Z,13.39
2023-05-05T21:08:01.340Z,13.34
2023-05-05T21:10:29.237Z,13.27
2023-05-05T21:12:56.595Z,13.20
2023-05-05T21:15:23.840Z,13.14
2023-05-05T21:17:51.426Z,13.09
2023-05-05T21:20:19.003Z,13.03
2023-05-05T21:22:46.394Z,12.96
2023-05-05T21:25:18.753Z,12.88
2023-05-05T21:27:47.114Z,12.83
2023-05-05T21:30:14.698Z,12.78
2023-05-05T21:32:42.292Z,12.73
2023-05-05T21:35:09.618Z,12.68
2023-05-05T21:37:37.818Z,12.64
2023-05-05T21:40:07.364Z,12.58
2023-05-05T21:42:34.447Z,12.54
2023-05-05T21:45:01.482Z,12.50
2023-05-05T21:47:28.530Z,12.46
2023-05-05T21:49:55.662Z,12.40
2023-05-05T21:52:22.652Z,12.36
2023-05-05T21:54:49.715Z,12.32
2023-05-05T21:57:16.712Z,12.26
2023-05-05T21:59:43.769Z,12.21
2023-05-05T22:02:10.804Z,12.15
2023-05-05T22:04:37.883Z,12.09
2023-05-05T22:07:04.894Z,12.04
2023-05-05T22:09:32.035Z,11.99
2023-05-05T22:11:59.143Z,11.94
2023-05-05T22:14:26.180Z,11.88
2023-05-05T22:16:53.270Z,11.85
2023-05-05T22:19:20.245Z,11.81
2023-05-05T22:21:47.235Z,11.78
2023-05-05T22:24:14.318Z,11.73
2023-05-05T22:26:43.414Z,11.71
2023-05-05T22:29:11.114Z,11.67
2023-05-05T22:31:38.418Z,11.62
2023-05-05T22:34:05.580Z,11.57
2023-05-05T22:36:33.164Z,11.52
2023-05-05T22:39:00.261Z,11.46
2023-05-05T22:41:27.354Z,11.42
2023-05-05T22:43:54.447Z,11.38
2023-05-05T22:46:21.614Z,11.35
2023-05-05T22:48:49.278Z,11.33
2023-05-05T22:51:16.638Z,11.31
2023-05-05T22:53:43.628Z,11.28
2023-05-05T22:56:10.667Z,11.27
2023-05-05T22:58:37.792Z,11.24
2023-05-05T23:01:04.845Z,11.21
2023-05-05T23:03:32.291Z,11.17
2023-05-05T23:05:59.315Z,11.13
2023-05-05T23:08:26.369Z,11.08
2023-05-05T23:10:53.754Z,11.04
2023-05-05T23:13:21.282Z,10.99
2023-05-05T23:15:48.463Z,10.96
2023-05-05T23:18:15.433Z,10.91
2023-05-05T23:20:42.460Z,10.87
2023-05-05T23:23:09.491Z,10.85
2023-05-05T23:25:36.607Z,10.82
2023-05-05T23:28:03.698Z,10.77
2023-05-05T23:30:30.938Z,10.73
2023-05-05T23:32:58.286Z,10.68
2023-05-05T23:35:26.571Z,10.64
2023-05-05T23:37:53.561Z,10.60
2023-05-05T23:40:21.028Z,10.57
2023-05-05T23:42:48.087Z,10.55
2023-05-05T23:45:15.995Z,10.52
2023-05-05T23:47:44.903Z,10.50
2023-05-05T23:50:11.966Z,10.49
2023-05-05T23:52:38.966Z,10.48
2023-05-05T23:55:07.192Z,10.46
2023-05-05T23:57:35.761Z,10.43
